sensor_id;sensor_type;location;lat;lon;timestamp;temperature;humidity
1175;DHT22;576;48.418;10.074;2023-04-24T00:02:06;24.00;57.20
1175;DHT22;576;48.418;10.074;2023-04-24T00:04:38;24.00;57.20
1175;DHT22;576;48.418;10.074;2023-04-24T00:07:07;24.00;57.20
1175;DHT22;576;48.418;10.074;2023-04-24T00:09:36;23.90;57.20
1175;DHT22;576;48.418;10.074;2023-04-24T00:12:05;24.00;57.20
1175;DHT22;576;48.418;10.074;2023-04-24T00:14:35;23.90;57.20
1175;DHT22;576;48.418;10.074;2023-04-24T00:17:04;23.90;57.20
1175;DHT22;576;48.418;10.074;2023-04-24T00:19:32;23.90;57.20
1175;DHT22;576;48.418;10.074;2023-04-24T00:22:00;23.90;57.30
1175;DHT22;576;48.418;10.074;2023-04-24T00:24:28;23.90;57.30
1175;DHT22;576;48.418;10.074;2023-04-24T00:26:56;23.90;57.20
1175;DHT22;576;48.418;10.074;2023-04-24T00:29:26;23.90;57.20
1175;DHT22;576;48.418;10.074;2023-04-24T00:31:55;23.90;57.20
1175;DHT22;576;48.418;10.074;2023-04-24T00:34:23;23.90;57.20
1175;DHT22;576;48.418;10.074;2023-04-24T00:36:52;23.90;57.30
1175;DHT22;576;48.418;10.074;2023-04-24T00:39:20;23.90;57.20
1175;DHT22;576;48.418;10.074;2023-04-24T00:41:48;23.90;57.30
1175;DHT22;576;48.418;10.074;2023-04-24T00:44:17;23.90;57.30
1175;DHT22;576;48.418;10.074;2023-04-24T00:46:47;23.90;57.30
1175;DHT22;576;48.418;10.074;2023-04-24T00:49:18;23.90;57.30
1175;DHT22;576;48.418;10.074;2023-04-24T00:51:47;23.90;57.30
1175;DHT22;576;48.418;10.074;2023-04-24T00:54:16;23.90;57.30
1175;DHT22;576;48.418;10.074;2023-04-24T00:56:44;23.90;57.30
1175;DHT22;576;48.418;10.074;2023-04-24T00:59:14;23.90;57.30
1175;DHT22;576;48.418;10.074;2023-04-24T01:01:44;23.90;57.30
1175;DHT22;576;48.418;10.074;2023-04-24T01:04:14;23.90;57.30
1175;DHT22;576;48.418;10.074;2023-04-24T01:06:45;23.90;57.30
1175;DHT22;576;48.418;10.074;2023-04-24T01:09:14;23.90;57.40
1175;DHT22;576;48.418;10.074;2023-04-24T01:11:43;23.90;57.30
1175;DHT22;576;48.418;10.074;2023-04-24T01:14:11;23.90;57.30
1175;DHT22;576;48.418;10.074;2023-04-24T01:16:40;23.80;57.20
1175;DHT22;576;48.418;10.074;2023-04-24T01:19:10;23.90;57.30
1175;DHT22;576;48.418;10.074;2023-04-24T01:21:41;23.80;57.30
1175;DHT22;576;48.418;10.074;2023-04-24T01:24:12;23.80;57.30
1175;DHT22;576;48.418;10.074;2023-04-24T01:26:40;23.80;57.30
1175;DHT22;576;48.418;10.074;2023-04-24T01:29:08;23.80;57.30
1175;DHT22;576;48.418;10.074;2023-04-24T01:31:37;23.80;57.30
1175;DHT22;576;48.418;10.074;2023-04-24T01:34:05;23.80;57.30
1175;DHT22;576;48.418;10.074;2023-04-24T01:36:35;23.80;57.30
1175;DHT22;576;48.418;10.074;2023-04-24T01:39:03;23.80;57.30
1175;DHT22;576;48.418;10.074;2023-04-24T01:41:33;23.80;57.30
1175;DHT22;576;48.418;10.074;2023-04-24T01:44:01;23.80;57.30
1175;DHT22;576;48.418;10.074;2023-04-24T01:46:30;23.80;57.40
1175;DHT22;576;48.418;10.074;2023-04-24T01:49:01;23.80;57.40
1175;DHT22;576;48.418;10.074;2023-04-24T01:51:29;23.80;57.40
1175;DHT22;576;48.418;10.074;2023-04-24T01:53:58;23.80;57.50
1175;DHT22;576;48.418;10.074;2023-04-24T01:56:29;23.80;57.40
1175;DHT22;576;48.418;10.074;2023-04-24T01:58:59;23.80;57.50
1175;DHT22;576;48.418;10.074;2023-04-24T02:01:33;23.70;57.50
1175;DHT22;576;48.418;10.074;2023-04-24T02:04:02;23.70;57.50
1175;DHT22;576;48.418;10.074;2023-04-24T02:06:30;23.70;57.60
1175;DHT22;576;48.418;10.074;2023-04-24T02:09:00;23.70;57.60
1175;DHT22;576;48.418;10.074;2023-04-24T02:11:29;23.70;57.60
1175;DHT22;576;48.418;10.074;2023-04-24T02:13:58;23.70;57.50
1175;DHT22;576;48.418;10.074;2023-04-24T02:16:28;23.70;57.50
1175;DHT22;576;48.418;10.074;2023-04-24T02:18:59;23.70;57.60
1175;DHT22;576;48.418;10.074;2023-04-24T02:21:28;23.70;57.60
1175;DHT22;576;48.418;10.074;2023-04-24T02:23:57;23.70;57.60
1175;DHT22;576;48.418;10.074;2023-04-24T02:26:25;23.70;57.50
1175;DHT22;576;48.418;10.074;2023-04-24T02:28:54;23.70;57.60
1175;DHT22;576;48.418;10.074;2023-04-24T02:31:23;23.70;57.60
1175;DHT22;576;48.418;10.074;2023-04-24T02:33:51;23.70;57.60
1175;DHT22;576;48.418;10.074;2023-04-24T02:36:20;23.70;57.60
1175;DHT22;576;48.418;10.074;2023-04-24T02:38:48;23.70;57.60
1175;DHT22;576;48.418;10.074;2023-04-24T02:41:16;23.70;57.60
1175;DHT22;576;48.418;10.074;2023-04-24T02:43:44;23.70;57.60
1175;DHT22;576;48.418;10.074;2023-04-24T02:46:12;23.70;57.60
1175;DHT22;576;48.418;10.074;2023-04-24T02:48:42;23.70;57.60
1175;DHT22;576;48.418;10.074;2023-04-24T02:51:10;23.70;57.60
1175;DHT22;576;48.418;10.074;2023-04-24T02:53:38;23.70;57.60
1175;DHT22;576;48.418;10.074;2023-04-24T02:56:06;23.70;57.60
1175;DHT22;576;48.418;10.074;2023-04-24T02:58:35;23.70;57.60
1175;DHT22;576;48.418;10.074;2023-04-24T03:01:03;23.70;57.60
1175;DHT22;576;48.418;10.074;2023-04-24T03:03:32;23.70;57.60
1175;DHT22;576;48.418;10.074;2023-04-24T03:06:02;23.70;57.60
1175;DHT22;576;48.418;10.074;2023-04-24T03:08:32;23.70;57.60
1175;DHT22;576;48.418;10.074;2023-04-24T03:11:00;23.60;57.60
1175;DHT22;576;48.418;10.074;2023-04-24T03:13:28;23.60;57.60
1175;DHT22;576;48.418;10.074;2023-04-24T03:15:56;23.60;57.60
1175;DHT22;576;48.418;10.074;2023-04-24T03:18:27;23.60;57.60
1175;DHT22;576;48.418;10.074;2023-04-24T03:20:55;23.60;57.60
1175;DHT22;576;48.418;10.074;2023-04-24T03:23:25;23.60;57.60
1175;DHT22;576;48.418;10.074;2023-04-24T03:25:53;23.60;57.70
1175;DHT22;576;48.418;10.074;2023-04-24T03:28:21;23.60;57.70
1175;DHT22;576;48.418;10.074;2023-04-24T03:30:59;23.60;57.70
1175;DHT22;576;48.418;10.074;2023-04-24T03:33:31;23.50;57.70
1175;DHT22;576;48.418;10.074;2023-04-24T03:36:01;23.50;57.70
1175;DHT22;576;48.418;10.074;2023-04-24T03:38:38;23.50;57.70
1175;DHT22;576;48.418;10.074;2023-04-24T03:41:28;23.50;57.70
1175;DHT22;576;48.418;10.074;2023-04-24T03:44:17;23.50;57.70
1175;DHT22;576;48.418;10.074;2023-04-24T03:46:45;23.50;57.70
1175;DHT22;576;48.418;10.074;2023-04-24T03:49:13;23.50;57.70
1175;DHT22;576;48.418;10.074;2023-04-24T03:51:43;23.50;57.70
1175;DHT22;576;48.418;10.074;2023-04-24T03:54:20;23.50;57.70
1175;DHT22;576;48.418;10.074;2023-04-24T03:56:50;23.50;57.80
1175;DHT22;576;48.418;10.074;2023-04-24T03:59:19;23.50;57.80
1175;DHT22;576;48.418;10.074;2023-04-24T04:01:58;23.50;57.80
1175;DHT22;576;48.418;10.074;2023-04-24T04:04:26;23.50;57.80
1175;DHT22;576;48.418;10.074;2023-04-24T04:06:55;23.50;57.80
1175;DHT22;576;48.418;10.074;2023-04-24T04:09:27;23.50;57.80
1175;DHT22;576;48.418;10.074;2023-04-24T04:11:55;23.50;57.80
1175;DHT22;576;48.418;10.074;2023-04-24T04:14:23;23.50;57.80
1175;DHT22;576;48.418;10.074;2023-04-24T04:16:51;23.60;57.80
1175;DHT22;576;48.418;10.074;2023-04-24T04:19:21;23.60;57.80
1175;DHT22;576;48.418;10.074;2023-04-24T04:21:50;23.60;57.80
1175;DHT22;576;48.418;10.074;2023-04-24T04:24:42;23.60;57.70
1175;DHT22;576;48.418;10.074;2023-04-24T04:27:11;23.60;57.70
1175;DHT22;576;48.418;10.074;2023-04-24T04:29:49;23.60;57.70
1175;DHT22;576;48.418;10.074;2023-04-24T04:32:19;23.60;57.70
1175;DHT22;576;48.418;10.074;2023-04-24T04:34:49;23.60;57.70
1175;DHT22;576;48.418;10.074;2023-04-24T04:37:21;23.60;57.70
1175;DHT22;576;48.418;10.074;2023-04-24T04:40:05;23.60;57.70
1175;DHT22;576;48.418;10.074;2023-04-24T04:42:39;23.60;57.70
1175;DHT22;576;48.418;10.074;2023-04-24T04:45:08;23.60;57.70
1175;DHT22;576;48.418;10.074;2023-04-24T04:47:50;23.60;57.70
1175;DHT22;576;48.418;10.074;2023-04-24T04:50:18;23.60;57.70
1175;DHT22;576;48.418;10.074;2023-04-24T04:52:48;23.60;57.70
1175;DHT22;576;48.418;10.074;2023-04-24T04:55:25;23.50;57.70
1175;DHT22;576;48.418;10.074;2023-04-24T04:58:09;23.50;57.70
1175;DHT22;576;48.418;10.074;2023-04-24T05:00:37;23.50;57.70
1175;DHT22;576;48.418;10.074;2023-04-24T05:03:15;23.50;57.70
1175;DHT22;576;48.418;10.074;2023-04-24T05:05:54;22.90;55.90
1175;DHT22;576;48.418;10.074;2023-04-24T05:08:23;21.20;59.00
1175;DHT22;576;48.418;10.074;2023-04-24T05:10:56;19.70;62.40
1175;DHT22;576;48.418;10.074;2023-04-24T05:13:27;18.80;64.70
1175;DHT22;576;48.418;10.074;2023-04-24T05:16:19;18.00;66.90
1175;DHT22;576;48.418;10.074;2023-04-24T05:18:49;17.50;68.00
1175;DHT22;576;48.418;10.074;2023-04-24T05:21:22;16.90;69.40
1175;DHT22;576;48.418;10.074;2023-04-24T05:23:51;16.70;70.40
1175;DHT22;576;48.418;10.074;2023-04-24T05:26:43;16.30;71.30
1175;DHT22;576;48.418;10.074;2023-04-24T05:29:12;16.10;72.50
1175;DHT22;576;48.418;10.074;2023-04-24T05:31:42;16.00;72.80
1175;DHT22;576;48.418;10.074;2023-04-24T05:34:10;16.00;72.60
1175;DHT22;576;48.418;10.074;2023-04-24T05:36:42;15.70;72.80
1175;DHT22;576;48.418;10.074;2023-04-24T05:39:10;15.50;73.80
1175;DHT22;576;48.418;10.074;2023-04-24T05:41:38;15.60;74.20
1175;DHT22;576;48.418;10.074;2023-04-24T05:44:08;15.80;73.20
1175;DHT22;576;48.418;10.074;2023-04-24T05:46:37;16.00;72.40
1175;DHT22;576;48.418;10.074;2023-04-24T05:49:05;16.00;72.00
1175;DHT22;576;48.418;10.074;2023-04-24T05:51:34;15.90;72.50
1175;DHT22;576;48.418;10.074;2023-04-24T05:54:03;15.70;73.50
1175;DHT22;576;48.418;10.074;2023-04-24T05:56:31;15.80;73.20
1175;DHT22;576;48.418;10.074;2023-04-24T05:59:01;15.70;72.50
1175;DHT22;576;48.418;10.074;2023-04-24T06:01:31;15.40;72.90
1175;DHT22;576;48.418;10.074;2023-04-24T06:04:12;15.10;73.80
1175;DHT22;576;48.418;10.074;2023-04-24T06:06:41;14.90;74.70
1175;DHT22;576;48.418;10.074;2023-04-24T06:09:10;15.00;74.60
1175;DHT22;576;48.418;10.074;2023-04-24T06:11:38;15.20;74.40
1175;DHT22;576;48.418;10.074;2023-04-24T06:14:10;15.50;73.80
1175;DHT22;576;48.418;10.074;2023-04-24T06:16:41;15.80;73.60
1175;DHT22;576;48.418;10.074;2023-04-24T06:19:24;16.40;72.70
1175;DHT22;576;48.418;10.074;2023-04-24T06:21:53;17.20;70.90
1175;DHT22;576;48.418;10.074;2023-04-24T06:24:22;17.90;69.20
1175;DHT22;576;48.418;10.074;2023-04-24T06:26:51;18.60;67.60
1175;DHT22;576;48.418;10.074;2023-04-24T06:29:19;19.20;66.30
1175;DHT22;576;48.418;10.074;2023-04-24T06:31:49;19.70;65.10
1175;DHT22;576;48.418;10.074;2023-04-24T06:34:17;20.10;64.20
1175;DHT22;576;48.418;10.074;2023-04-24T06:36:46;20.60;63.30
1175;DHT22;576;48.418;10.074;2023-04-24T06:39:15;20.90;62.70
1175;DHT22;576;48.418;10.074;2023-04-24T06:41:43;21.30;61.90
1175;DHT22;576;48.418;10.074;2023-04-24T06:44:18;21.60;61.40
1175;DHT22;576;48.418;10.074;2023-04-24T06:46:46;21.80;60.80
1175;DHT22;576;48.418;10.074;2023-04-24T06:49:16;22.10;60.40
1175;DHT22;576;48.418;10.074;2023-04-24T06:51:44;22.30;60.00
1175;DHT22;576;48.418;10.074;2023-04-24T06:54:12;22.50;59.70
1175;DHT22;576;48.418;10.074;2023-04-24T06:56:44;22.60;59.40
1175;DHT22;576;48.418;10.074;2023-04-24T06:59:14;22.70;59.20
1175;DHT22;576;48.418;10.074;2023-04-24T07:01:42;22.80;59.00
1175;DHT22;576;48.418;10.074;2023-04-24T07:04:11;22.90;59.00
1175;DHT22;576;48.418;10.074;2023-04-24T07:06:41;22.90;58.90
1175;DHT22;576;48.418;10.074;2023-04-24T07:09:09;23.00;58.80
1175;DHT22;576;48.418;10.074;2023-04-24T07:11:38;23.00;58.80
1175;DHT22;576;48.418;10.074;2023-04-24T07:14:07;23.10;58.80
1175;DHT22;576;48.418;10.074;2023-04-24T07:16:36;23.10;58.70
1175;DHT22;576;48.418;10.074;2023-04-24T07:19:04;23.10;58.70
1175;DHT22;576;48.418;10.074;2023-04-24T07:21:32;23.10;58.70
1175;DHT22;576;48.418;10.074;2023-04-24T07:24:02;23.10;58.70
1175;DHT22;576;48.418;10.074;2023-04-24T07:26:30;23.10;58.70
1175;DHT22;576;48.418;10.074;2023-04-24T07:28:59;23.10;58.70
1175;DHT22;576;48.418;10.074;2023-04-24T07:31:27;23.20;58.70
1175;DHT22;576;48.418;10.074;2023-04-24T07:33:55;23.20;58.70
1175;DHT22;576;48.418;10.074;2023-04-24T07:36:25;23.20;58.70
1175;DHT22;576;48.418;10.074;2023-04-24T07:38:54;23.30;58.60
1175;DHT22;576;48.418;10.074;2023-04-24T07:41:24;23.30;58.50
1175;DHT22;576;48.418;10.074;2023-04-24T07:43:54;23.30;58.00
1175;DHT22;576;48.418;10.074;2023-04-24T07:46:22;23.40;57.80
1175;DHT22;576;48.418;10.074;2023-04-24T07:48:51;23.30;57.80
1175;DHT22;576;48.418;10.074;2023-04-24T07:51:39;23.30;58.00
1175;DHT22;576;48.418;10.074;2023-04-24T07:54:07;23.30;58.10
1175;DHT22;576;48.418;10.074;2023-04-24T07:56:36;23.30;58.20
1175;DHT22;576;48.418;10.074;2023-04-24T07:59:06;23.30;58.30
1175;DHT22;576;48.418;10.074;2023-04-24T08:01:34;23.40;58.30
1175;DHT22;576;48.418;10.074;2023-04-24T08:04:02;23.40;58.30
1175;DHT22;576;48.418;10.074;2023-04-24T08:06:31;23.40;58.30
1175;DHT22;576;48.418;10.074;2023-04-24T08:08:59;23.40;58.40
1175;DHT22;576;48.418;10.074;2023-04-24T08:11:28;23.50;58.50
1175;DHT22;576;48.418;10.074;2023-04-24T08:13:57;23.50;58.40
1175;DHT22;576;48.418;10.074;2023-04-24T08:16:26;23.50;58.40
1175;DHT22;576;48.418;10.074;2023-04-24T08:18:54;23.60;58.40
1175;DHT22;576;48.418;10.074;2023-04-24T08:21:22;23.60;58.40
1175;DHT22;576;48.418;10.074;2023-04-24T08:23:50;23.60;58.40
1175;DHT22;576;48.418;10.074;2023-04-24T08:26:19;23.70;58.40
1175;DHT22;576;48.418;10.074;2023-04-24T08:28:47;23.70;58.40
1175;DHT22;576;48.418;10.074;2023-04-24T08:31:16;23.70;58.40
1175;DHT22;576;48.418;10.074;2023-04-24T08:33:45;23.70;58.40
1175;DHT22;576;48.418;10.074;2023-04-24T08:36:14;23.70;58.40
1175;DHT22;576;48.418;10.074;2023-04-24T08:38:42;23.70;58.40
1175;DHT22;576;48.418;10.074;2023-04-24T08:41:11;23.80;58.30
1175;DHT22;576;48.418;10.074;2023-04-24T08:43:40;23.80;58.40
1175;DHT22;576;48.418;10.074;2023-04-24T08:46:08;23.80;58.30
1175;DHT22;576;48.418;10.074;2023-04-24T08:48:42;23.80;58.30
1175;DHT22;576;48.418;10.074;2023-04-24T08:51:10;23.80;58.30
1175;DHT22;576;48.418;10.074;2023-04-24T08:53:39;23.80;58.20
1175;DHT22;576;48.418;10.074;2023-04-24T08:56:07;23.90;58.20
1175;DHT22;576;48.418;10.074;2023-04-24T08:58:36;23.90;58.20
1175;DHT22;576;48.418;10.074;2023-04-24T09:01:04;23.90;58.20
1175;DHT22;576;48.418;10.074;2023-04-24T09:03:33;23.90;58.20
1175;DHT22;576;48.418;10.074;2023-04-24T09:06:04;23.90;58.10
1175;DHT22;576;48.418;10.074;2023-04-24T09:08:34;23.90;58.20
1175;DHT22;576;48.418;10.074;2023-04-24T09:11:03;23.90;58.20
1175;DHT22;576;48.418;10.074;2023-04-24T09:13:32;23.90;58.20
1175;DHT22;576;48.418;10.074;2023-04-24T09:16:01;24.00;58.20
1175;DHT22;576;48.418;10.074;2023-04-24T09:18:29;24.00;58.10
1175;DHT22;576;48.418;10.074;2023-04-24T09:20:58;23.90;58.40
1175;DHT22;576;48.418;10.074;2023-04-24T09:23:29;23.90;58.30
1175;DHT22;576;48.418;10.074;2023-04-24T09:25:59;23.90;58.30
1175;DHT22;576;48.418;10.074;2023-04-24T09:28:32;23.90;58.30
1175;DHT22;576;48.418;10.074;2023-04-24T09:31:05;23.90;58.40
1175;DHT22;576;48.418;10.074;2023-04-24T09:33:34;23.90;58.60
1175;DHT22;576;48.418;10.074;2023-04-24T09:36:03;23.90;58.60
1175;DHT22;576;48.418;10.074;2023-04-24T09:38:35;24.00;58.50
1175;DHT22;576;48.418;10.074;2023-04-24T09:41:05;24.00;58.80
1175;DHT22;576;48.418;10.074;2023-04-24T09:43:35;24.00;58.80
1175;DHT22;576;48.418;10.074;2023-04-24T09:46:05;24.00;59.00
1175;DHT22;576;48.418;10.074;2023-04-24T09:48:36;24.10;58.90
1175;DHT22;576;48.418;10.074;2023-04-24T09:51:05;24.10;58.90
1175;DHT22;576;48.418;10.074;2023-04-24T09:53:38;24.10;58.90
1175;DHT22;576;48.418;10.074;2023-04-24T09:56:11;24.10;59.00
1175;DHT22;576;48.418;10.074;2023-04-24T09:58:40;24.10;58.80
1175;DHT22;576;48.418;10.074;2023-04-24T10:01:08;24.10;58.70
1175;DHT22;576;48.418;10.074;2023-04-24T10:03:36;24.10;58.60
1175;DHT22;576;48.418;10.074;2023-04-24T10:06:05;24.10;58.60
1175;DHT22;576;48.418;10.074;2023-04-24T10:08:38;24.10;58.60
1175;DHT22;576;48.418;10.074;2023-04-24T10:11:06;24.10;58.60
1175;DHT22;576;48.418;10.074;2023-04-24T10:13:36;24.10;58.60
1175;DHT22;576;48.418;10.074;2023-04-24T10:16:04;24.10;58.60
1175;DHT22;576;48.418;10.074;2023-04-24T10:18:34;24.10;58.40
1175;DHT22;576;48.418;10.074;2023-04-24T10:21:03;24.10;58.60
1175;DHT22;576;48.418;10.074;2023-04-24T10:23:32;24.10;58.60
1175;DHT22;576;48.418;10.074;2023-04-24T10:26:02;24.10;58.40
1175;DHT22;576;48.418;10.074;2023-04-24T10:28:30;24.10;58.30
1175;DHT22;576;48.418;10.074;2023-04-24T10:31:00;24.20;58.30
1175;DHT22;576;48.418;10.074;2023-04-24T10:33:29;24.20;58.30
1175;DHT22;576;48.418;10.074;2023-04-24T10:35:58;24.20;58.30
1175;DHT22;576;48.418;10.074;2023-04-24T10:38:28;24.20;58.30
1175;DHT22;576;48.418;10.074;2023-04-24T10:41:08;24.20;58.10
1175;DHT22;576;48.418;10.074;2023-04-24T10:43:42;24.20;57.90
1175;DHT22;576;48.418;10.074;2023-04-24T10:46:10;24.20;57.80
1175;DHT22;576;48.418;10.074;2023-04-24T10:48:52;24.10;57.70
1175;DHT22;576;48.418;10.074;2023-04-24T10:51:22;24.10;57.70
1175;DHT22;576;48.418;10.074;2023-04-24T10:53:51;24.20;57.70
1175;DHT22;576;48.418;10.074;2023-04-24T10:56:21;24.20;57.70
1175;DHT22;576;48.418;10.074;2023-04-24T10:58:51;24.20;57.70
1175;DHT22;576;48.418;10.074;2023-04-24T11:01:24;24.20;57.50
1175;DHT22;576;48.418;10.074;2023-04-24T11:03:55;24.20;57.50
1175;DHT22;576;48.418;10.074;2023-04-24T11:06:31;24.20;57.40
1175;DHT22;576;48.418;10.074;2023-04-24T11:09:03;24.20;57.30
1175;DHT22;576;48.418;10.074;2023-04-24T11:11:35;24.20;57.30
1175;DHT22;576;48.418;10.074;2023-04-24T11:14:08;24.20;57.40
1175;DHT22;576;48.418;10.074;2023-04-24T11:16:42;24.30;57.30
1175;DHT22;576;48.418;10.074;2023-04-24T11:19:20;24.30;57.30
1175;DHT22;576;48.418;10.074;2023-04-24T11:21:55;24.30;57.40
1175;DHT22;576;48.418;10.074;2023-04-24T11:24:29;24.30;57.30
1175;DHT22;576;48.418;10.074;2023-04-24T11:27:06;24.40;57.20
1175;DHT22;576;48.418;10.074;2023-04-24T11:29:42;24.40;57.20
1175;DHT22;576;48.418;10.074;2023-04-24T11:32:22;24.50;57.10
1175;DHT22;576;48.418;10.074;2023-04-24T11:34:52;24.50;57.10
1175;DHT22;576;48.418;10.074;2023-04-24T11:37:22;24.60;56.90
1175;DHT22;576;48.418;10.074;2023-04-24T11:39:52;24.70;57.00
1175;DHT22;576;48.418;10.074;2023-04-24T11:42:23;24.70;56.90
1175;DHT22;576;48.418;10.074;2023-04-24T11:44:53;24.70;56.90
1175;DHT22;576;48.418;10.074;2023-04-24T11:47:28;24.70;56.60
1175;DHT22;576;48.418;10.074;2023-04-24T11:49:57;24.70;56.60
1175;DHT22;576;48.418;10.074;2023-04-24T11:52:26;24.60;56.60
1175;DHT22;576;48.418;10.074;2023-04-24T11:54:55;24.60;56.60
1175;DHT22;576;48.418;10.074;2023-04-24T11:57:26;24.50;56.70
1175;DHT22;576;48.418;10.074;2023-04-24T11:59:55;24.40;56.80
1175;DHT22;576;48.418;10.074;2023-04-24T12:02:25;24.40;56.80
1175;DHT22;576;48.418;10.074;2023-04-24T12:04:54;24.40;57.00
1175;DHT22;576;48.418;10.074;2023-04-24T12:07:24;24.40;57.30
1175;DHT22;576;48.418;10.074;2023-04-24T12:09:57;24.60;57.10
1175;DHT22;576;48.418;10.074;2023-04-24T12:12:28;24.70;56.80
1175;DHT22;576;48.418;10.074;2023-04-24T12:14:58;24.80;56.60
1175;DHT22;576;48.418;10.074;2023-04-24T12:17:28;24.80;56.60
1175;DHT22;576;48.418;10.074;2023-04-24T12:19:59;24.80;56.50
1175;DHT22;576;48.418;10.074;2023-04-24T12:22:43;24.80;56.60
1175;DHT22;576;48.418;10.074;2023-04-24T12:25:16;24.90;56.40
1175;DHT22;576;48.418;10.074;2023-04-24T12:27:53;24.90;56.10
1175;DHT22;576;48.418;10.074;2023-04-24T12:30:26;25.00;56.20
1175;DHT22;576;48.418;10.074;2023-04-24T12:32:58;25.00;55.80
1175;DHT22;576;48.418;10.074;2023-04-24T12:35:29;24.90;55.80
1175;DHT22;576;48.418;10.074;2023-04-24T12:38:05;24.80;56.00
1175;DHT22;576;48.418;10.074;2023-04-24T12:40:35;24.80;55.90
1175;DHT22;576;48.418;10.074;2023-04-24T12:43:13;24.70;56.00
1175;DHT22;576;48.418;10.074;2023-04-24T12:45:42;24.60;56.40
1175;DHT22;576;48.418;10.074;2023-04-24T12:48:12;24.60;56.40
1175;DHT22;576;48.418;10.074;2023-04-24T12:50:44;24.50;56.40
1175;DHT22;576;48.418;10.074;2023-04-24T12:53:14;24.50;56.40
1175;DHT22;576;48.418;10.074;2023-04-24T12:55:43;24.40;56.40
1175;DHT22;576;48.418;10.074;2023-04-24T12:58:15;24.40;56.60
1175;DHT22;576;48.418;10.074;2023-04-24T13:00:44;24.40;56.50
1175;DHT22;576;48.418;10.074;2023-04-24T13:03:13;24.40;56.60
1175;DHT22;576;48.418;10.074;2023-04-24T13:05:42;24.30;56.70
1175;DHT22;576;48.418;10.074;2023-04-24T13:08:12;24.40;56.70
1175;DHT22;576;48.418;10.074;2023-04-24T13:10:41;24.30;56.70
1175;DHT22;576;48.418;10.074;2023-04-24T13:13:10;24.30;56.70
1175;DHT22;576;48.418;10.074;2023-04-24T13:15:40;24.30;56.90
1175;DHT22;576;48.418;10.074;2023-04-24T13:18:09;24.30;56.70
1175;DHT22;576;48.418;10.074;2023-04-24T13:20:39;24.30;56.70
1175;DHT22;576;48.418;10.074;2023-04-24T13:23:08;24.20;56.90
1175;DHT22;576;48.418;10.074;2023-04-24T13:25:37;24.20;56.90
1175;DHT22;576;48.418;10.074;2023-04-24T13:28:06;24.20;56.90
1175;DHT22;576;48.418;10.074;2023-04-24T13:30:35;24.20;57.00
1175;DHT22;576;48.418;10.074;2023-04-24T13:33:05;24.20;57.10
1175;DHT22;576;48.418;10.074;2023-04-24T13:35:33;24.20;57.20
1175;DHT22;576;48.418;10.074;2023-04-24T13:38:02;24.10;57.00
1175;DHT22;576;48.418;10.074;2023-04-24T13:40:33;24.10;57.10
1175;DHT22;576;48.418;10.074;2023-04-24T13:43:01;24.10;57.20
1175;DHT22;576;48.418;10.074;2023-04-24T13:45:29;24.10;57.20
1175;DHT22;576;48.418;10.074;2023-04-24T13:47:57;24.10;57.10
1175;DHT22;576;48.418;10.074;2023-04-24T13:50:27;24.10;57.20
1175;DHT22;576;48.418;10.074;2023-04-24T13:52:55;24.10;57.10
1175;DHT22;576;48.418;10.074;2023-04-24T13:55:25;24.10;57.10
1175;DHT22;576;48.418;10.074;2023-04-24T13:57:53;24.10;57.20
1175;DHT22;576;48.418;10.074;2023-04-24T14:00:21;24.10;57.20
1175;DHT22;576;48.418;10.074;2023-04-24T14:02:50;24.10;57.00
1175;DHT22;576;48.418;10.074;2023-04-24T14:05:19;24.10;57.20
1175;DHT22;576;48.418;10.074;2023-04-24T14:07:50;24.10;57.20
1175;DHT22;576;48.418;10.074;2023-04-24T14:10:19;24.10;57.20
1175;DHT22;576;48.418;10.074;2023-04-24T14:12:48;24.10;57.10
1175;DHT22;576;48.418;10.074;2023-04-24T14:15:17;24.10;57.10
1175;DHT22;576;48.418;10.074;2023-04-24T14:17:47;24.10;57.00
1175;DHT22;576;48.418;10.074;2023-04-24T14:20:16;24.10;57.20
1175;DHT22;576;48.418;10.074;2023-04-24T14:22:44;24.10;57.00
1175;DHT22;576;48.418;10.074;2023-04-24T14:25:14;24.20;56.90
1175;DHT22;576;48.418;10.074;2023-04-24T14:27:43;24.20;57.00
1175;DHT22;576;48.418;10.074;2023-04-24T14:30:13;24.20;56.90
1175;DHT22;576;48.418;10.074;2023-04-24T14:32:42;24.20;56.90
1175;DHT22;576;48.418;10.074;2023-04-24T14:35:11;24.20;56.90
1175;DHT22;576;48.418;10.074;2023-04-24T14:37:40;24.20;56.90
1175;DHT22;576;48.418;10.074;2023-04-24T14:40:10;24.20;57.00
1175;DHT22;576;48.418;10.074;2023-04-24T14:43:01;24.20;56.90
1175;DHT22;576;48.418;10.074;2023-04-24T14:45:30;24.20;57.00
1175;DHT22;576;48.418;10.074;2023-04-24T14:47:59;24.20;56.90
1175;DHT22;576;48.418;10.074;2023-04-24T14:50:27;24.20;56.90
1175;DHT22;576;48.418;10.074;2023-04-24T14:52:57;24.20;56.90
1175;DHT22;576;48.418;10.074;2023-04-24T14:55:26;24.10;56.90
1175;DHT22;576;48.418;10.074;2023-04-24T14:57:54;24.10;56.90
1175;DHT22;576;48.418;10.074;2023-04-24T15:00:24;24.10;57.20
1175;DHT22;576;48.418;10.074;2023-04-24T15:02:53;24.10;57.00
1175;DHT22;576;48.418;10.074;2023-04-24T15:05:22;24.10;57.10
1175;DHT22;576;48.418;10.074;2023-04-24T15:07:52;24.10;57.20
1175;DHT22;576;48.418;10.074;2023-04-24T15:10:21;24.00;57.10
1175;DHT22;576;48.418;10.074;2023-04-24T15:12:52;24.00;57.00
1175;DHT22;576;48.418;10.074;2023-04-24T15:15:21;24.00;57.10
1175;DHT22;576;48.418;10.074;2023-04-24T15:17:51;24.00;57.00
1175;DHT22;576;48.418;10.074;2023-04-24T15:20:21;24.00;57.10
1175;DHT22;576;48.418;10.074;2023-04-24T15:22:49;24.00;57.10
1175;DHT22;576;48.418;10.074;2023-04-24T15:25:18;24.00;57.20
1175;DHT22;576;48.418;10.074;2023-04-24T15:27:46;24.00;57.20
1175;DHT22;576;48.418;10.074;2023-04-24T15:30:15;24.00;57.10
1175;DHT22;576;48.418;10.074;2023-04-24T15:32:43;24.00;57.20
1175;DHT22;576;48.418;10.074;2023-04-24T15:35:13;24.00;57.10
1175;DHT22;576;48.418;10.074;2023-04-24T15:37:41;24.00;57.20
1175;DHT22;576;48.418;10.074;2023-04-24T15:40:10;24.00;57.20
1175;DHT22;576;48.418;10.074;2023-04-24T15:42:40;24.00;57.20
1175;DHT22;576;48.418;10.074;2023-04-24T15:45:09;24.00;57.10
1175;DHT22;576;48.418;10.074;2023-04-24T15:47:38;23.90;57.10
1175;DHT22;576;48.418;10.074;2023-04-24T15:50:07;23.90;57.20
1175;DHT22;576;48.418;10.074;2023-04-24T15:52:42;23.90;57.20
1175;DHT22;576;48.418;10.074;2023-04-24T15:55:10;23.90;57.20
1175;DHT22;576;48.418;10.074;2023-04-24T15:57:39;23.90;57.10
1175;DHT22;576;48.418;10.074;2023-04-24T16:00:08;23.90;57.20
1175;DHT22;576;48.418;10.074;2023-04-24T16:02:40;23.90;57.30
1175;DHT22;576;48.418;10.074;2023-04-24T16:05:08;23.80;57.30
1175;DHT22;576;48.418;10.074;2023-04-24T16:07:38;23.80;57.20
1175;DHT22;576;48.418;10.074;2023-04-24T16:10:09;23.80;57.30
1175;DHT22;576;48.418;10.074;2023-04-24T16:12:38;23.80;57.30
1175;DHT22;576;48.418;10.074;2023-04-24T16:15:07;23.80;57.40
1175;DHT22;576;48.418;10.074;2023-04-24T16:17:35;23.80;57.40
1175;DHT22;576;48.418;10.074;2023-04-24T16:20:04;23.80;57.30
1175;DHT22;576;48.418;10.074;2023-04-24T16:22:33;23.80;57.30